sensor_id;sensor_type;location;lat;lon;timestamp;P1;durP1;ratioP1;P2;durP2;ratioP2
36923;SDS011;22841;50.252;18.688;2023-07-13T00:01:31;4.07;;;2.95;;
36923;SDS011;22841;50.252;18.688;2023-07-13T00:03:59;8.55;;;3.38;;
36923;SDS011;22841;50.252;18.688;2023-07-13T00:06:26;6.35;;;2.70;;
36923;SDS011;22841;50.252;18.688;2023-07-13T00:08:55;4.35;;;2.75;;
36923;SDS011;22841;50.252;18.688;2023-07-13T00:11:21;4.55;;;2.25;;
36923;SDS011;22841;50.252;18.688;2023-07-13T00:13:47;3.42;;;3.13;;
36923;SDS011;22841;50.252;18.688;2023-07-13T00:16:14;2.95;;;2.75;;
36923;SDS011;22841;50.252;18.688;2023-07-13T00:18:40;3.95;;;2.50;;
36923;SDS011;22841;50.252;18.688;2023-07-13T00:21:06;4.70;;;3.05;;
36923;SDS011;22841;50.252;18.688;2023-07-13T00:23:36;3.25;;;2.90;;
36923;SDS011;22841;50.252;18.688;2023-07-13T00:28:31;4.47;;;2.88;;
36923;SDS011;22841;50.252;18.688;2023-07-13T00:30:58;4.43;;;3.45;;
36923;SDS011;22841;50.252;18.688;2023-07-13T00:33:24;7.25;;;3.13;;
36923;SDS011;22841;50.252;18.688;2023-07-13T00:35:50;5.82;;;4.00;;
36923;SDS011;22841;50.252;18.688;2023-07-13T00:38:16;4.68;;;3.42;;
36923;SDS011;22841;50.252;18.688;2023-07-13T00:40:42;4.43;;;4.03;;
36923;SDS011;22841;50.252;18.688;2023-07-13T00:43:13;7.18;;;4.85;;
36923;SDS011;22841;50.252;18.688;2023-07-13T00:48:11;6.45;;;4.90;;
36923;SDS011;22841;50.252;18.688;2023-07-13T00:50:41;7.03;;;3.92;;
36923;SDS011;22841;50.252;18.688;2023-07-13T00:53:09;7.25;;;4.40;;
36923;SDS011;22841;50.252;18.688;2023-07-13T00:55:37;10.45;;;4.97;;
36923;SDS011;22841;50.252;18.688;2023-07-13T00:58:04;8.30;;;5.10;;
36923;SDS011;22841;50.252;18.688;2023-07-13T01:00:33;12.02;;;4.65;;
36923;SDS011;22841;50.252;18.688;2023-07-13T01:03:01;6.70;;;5.03;;
36923;SDS011;22841;50.252;18.688;2023-07-13T01:05:30;8.38;;;5.45;;
36923;SDS011;22841;50.252;18.688;2023-07-13T01:07:58;5.93;;;4.63;;
36923;SDS011;22841;50.252;18.688;2023-07-13T01:10:26;7.20;;;3.80;;
36923;SDS011;22841;50.252;18.688;2023-07-13T01:12:53;6.88;;;4.80;;
36923;SDS011;22841;50.252;18.688;2023-07-13T01:15:36;5.72;;;4.32;;
36923;SDS011;22841;50.252;18.688;2023-07-13T01:18:03;9.02;;;5.57;;
36923;SDS011;22841;50.252;18.688;2023-07-13T01:20:31;8.20;;;5.70;;
36923;SDS011;22841;50.252;18.688;2023-07-13T01:23:19;7.47;;;5.35;;
36923;SDS011;22841;50.252;18.688;2023-07-13T01:25:46;6.53;;;4.90;;
36923;SDS011;22841;50.252;18.688;2023-07-13T01:28:12;6.28;;;4.47;;
36923;SDS011;22841;50.252;18.688;2023-07-13T01:30:39;11.25;;;4.53;;
36923;SDS011;22841;50.252;18.688;2023-07-13T01:33:06;6.20;;;4.30;;
36923;SDS011;22841;50.252;18.688;2023-07-13T01:35:33;4.70;;;3.65;;
36923;SDS011;22841;50.252;18.688;2023-07-13T01:37:59;5.18;;;3.63;;
36923;SDS011;22841;50.252;18.688;2023-07-13T01:40:27;6.72;;;3.70;;
36923;SDS011;22841;50.252;18.688;2023-07-13T01:42:53;5.95;;;4.10;;
36923;SDS011;22841;50.252;18.688;2023-07-13T01:45:19;5.40;;;4.40;;
36923;SDS011;22841;50.252;18.688;2023-07-13T01:47:45;4.97;;;3.85;;
36923;SDS011;22841;50.252;18.688;2023-07-13T01:50:11;5.20;;;4.18;;
36923;SDS011;22841;50.252;18.688;2023-07-13T01:52:38;7.60;;;3.88;;
36923;SDS011;22841;50.252;18.688;2023-07-13T01:55:04;10.60;;;4.50;;
36923;SDS011;22841;50.252;18.688;2023-07-13T01:57:31;6.95;;;4.43;;
36923;SDS011;22841;50.252;18.688;2023-07-13T01:59:57;5.97;;;4.65;;
36923;SDS011;22841;50.252;18.688;2023-07-13T02:02:23;15.63;;;4.53;;
36923;SDS011;22841;50.252;18.688;2023-07-13T02:04:49;12.30;;;4.43;;
36923;SDS011;22841;50.252;18.688;2023-07-13T02:07:15;5.75;;;3.88;;
36923;SDS011;22841;50.252;18.688;2023-07-13T02:09:41;10.90;;;4.47;;
36923;SDS011;22841;50.252;18.688;2023-07-13T02:12:07;8.52;;;4.20;;
36923;SDS011;22841;50.252;18.688;2023-07-13T02:14:34;7.70;;;4.78;;
36923;SDS011;22841;50.252;18.688;2023-07-13T02:17:00;10.93;;;4.68;;
36923;SDS011;22841;50.252;18.688;2023-07-13T02:19:26;8.20;;;4.15;;
36923;SDS011;22841;50.252;18.688;2023-07-13T02:21:52;7.78;;;4.70;;
36923;SDS011;22841;50.252;18.688;2023-07-13T02:24:18;7.57;;;4.47;;
36923;SDS011;22841;50.252;18.688;2023-07-13T02:26:46;10.68;;;5.18;;
36923;SDS011;22841;50.252;18.688;2023-07-13T02:29:13;8.07;;;4.90;;
36923;SDS011;22841;50.252;18.688;2023-07-13T02:31:39;5.20;;;4.70;;
36923;SDS011;22841;50.252;18.688;2023-07-13T02:34:05;9.23;;;5.38;;
36923;SDS011;22841;50.252;18.688;2023-07-13T02:36:32;10.40;;;5.25;;
36923;SDS011;22841;50.252;18.688;2023-07-13T02:39:02;7.70;;;5.00;;
36923;SDS011;22841;50.252;18.688;2023-07-13T02:41:31;8.75;;;4.78;;
36923;SDS011;22841;50.252;18.688;2023-07-13T02:43:58;11.57;;;5.07;;
36923;SDS011;22841;50.252;18.688;2023-07-13T02:46:32;7.70;;;4.60;;
36923;SDS011;22841;50.252;18.688;2023-07-13T02:49:00;8.18;;;5.03;;
36923;SDS011;22841;50.252;18.688;2023-07-13T02:51:26;7.45;;;4.78;;
36923;SDS011;22841;50.252;18.688;2023-07-13T02:53:52;10.43;;;5.30;;
36923;SDS011;22841;50.252;18.688;2023-07-13T02:56:21;12.32;;;5.45;;
36923;SDS011;22841;50.252;18.688;2023-07-13T02:58:49;9.43;;;5.82;;
36923;SDS011;22841;50.252;18.688;2023-07-13T03:01:15;10.60;;;5.80;;
36923;SDS011;22841;50.252;18.688;2023-07-13T03:03:44;6.00;;;4.82;;
36923;SDS011;22841;50.252;18.688;2023-07-13T03:06:11;8.27;;;5.97;;
36923;SDS011;22841;50.252;18.688;2023-07-13T03:08:38;9.25;;;6.10;;
36923;SDS011;22841;50.252;18.688;2023-07-13T03:11:06;12.57;;;6.15;;
36923;SDS011;22841;50.252;18.688;2023-07-13T03:16:03;7.55;;;5.70;;
36923;SDS011;22841;50.252;18.688;2023-07-13T03:18:30;7.47;;;5.53;;
36923;SDS011;22841;50.252;18.688;2023-07-13T03:20:56;14.38;;;6.03;;
36923;SDS011;22841;50.252;18.688;2023-07-13T03:23:23;13.05;;;6.72;;
36923;SDS011;22841;50.252;18.688;2023-07-13T03:25:50;11.23;;;5.60;;
36923;SDS011;22841;50.252;18.688;2023-07-13T03:28:26;10.18;;;5.90;;
36923;SDS011;22841;50.252;18.688;2023-07-13T03:30:58;7.85;;;5.82;;
36923;SDS011;22841;50.252;18.688;2023-07-13T03:33:29;8.80;;;5.70;;
36923;SDS011;22841;50.252;18.688;2023-07-13T03:35:56;16.65;;;7.20;;
36923;SDS011;22841;50.252;18.688;2023-07-13T03:38:22;13.52;;;6.13;;
36923;SDS011;22841;50.252;18.688;2023-07-13T03:40:49;8.65;;;6.72;;
36923;SDS011;22841;50.252;18.688;2023-07-13T03:43:15;11.15;;;6.35;;
36923;SDS011;22841;50.252;18.688;2023-07-13T03:45:41;8.82;;;6.00;;
36923;SDS011;22841;50.252;18.688;2023-07-13T03:48:07;15.23;;;6.43;;
36923;SDS011;22841;50.252;18.688;2023-07-13T03:50:33;11.40;;;6.75;;
36923;SDS011;22841;50.252;18.688;2023-07-13T03:53:00;13.20;;;6.70;;
36923;SDS011;22841;50.252;18.688;2023-07-13T03:55:26;21.35;;;6.32;;
36923;SDS011;22841;50.252;18.688;2023-07-13T03:57:59;13.07;;;6.30;;
36923;SDS011;22841;50.252;18.688;2023-07-13T04:00:46;16.27;;;7.95;;
36923;SDS011;22841;50.252;18.688;2023-07-13T04:03:12;11.95;;;7.20;;
36923;SDS011;22841;50.252;18.688;2023-07-13T04:05:38;12.90;;;6.43;;
36923;SDS011;22841;50.252;18.688;2023-07-13T04:08:06;14.35;;;7.03;;
36923;SDS011;22841;50.252;18.688;2023-07-13T04:10:32;12.70;;;6.80;;
36923;SDS011;22841;50.252;18.688;2023-07-13T04:12:58;12.45;;;6.80;;
36923;SDS011;22841;50.252;18.688;2023-07-13T04:15:24;11.57;;;6.90;;
36923;SDS011;22841;50.252;18.688;2023-07-13T04:17:50;14.68;;;6.82;;
36923;SDS011;22841;50.252;18.688;2023-07-13T04:20:16;13.98;;;7.25;;
36923;SDS011;22841;50.252;18.688;2023-07-13T04:22:43;10.93;;;6.47;;
36923;SDS011;22841;50.252;18.688;2023-07-13T04:25:09;8.70;;;7.35;;
36923;SDS011;22841;50.252;18.688;2023-07-13T04:27:35;11.77;;;6.60;;
36923;SDS011;22841;50.252;18.688;2023-07-13T04:30:01;11.57;;;7.50;;
36923;SDS011;22841;50.252;18.688;2023-07-13T04:32:27;12.60;;;7.47;;
36923;SDS011;22841;50.252;18.688;2023-07-13T04:34:53;15.82;;;8.00;;
36923;SDS011;22841;50.252;18.688;2023-07-13T04:37:21;14.77;;;8.15;;
36923;SDS011;22841;50.252;18.688;2023-07-13T04:39:47;12.70;;;8.10;;
36923;SDS011;22841;50.252;18.688;2023-07-13T04:42:13;13.27;;;7.60;;
36923;SDS011;22841;50.252;18.688;2023-07-13T04:44:39;10.85;;;7.50;;
36923;SDS011;22841;50.252;18.688;2023-07-13T04:47:05;10.10;;;7.75;;
36923;SDS011;22841;50.252;18.688;2023-07-13T04:49:31;11.45;;;8.27;;
36923;SDS011;22841;50.252;18.688;2023-07-13T04:51:57;13.77;;;8.18;;
36923;SDS011;22841;50.252;18.688;2023-07-13T04:54:23;17.05;;;9.52;;
36923;SDS011;22841;50.252;18.688;2023-07-13T04:56:49;12.02;;;8.82;;
36923;SDS011;22841;50.252;18.688;2023-07-13T04:59:15;14.68;;;9.45;;
36923;SDS011;22841;50.252;18.688;2023-07-13T05:01:41;17.80;;;9.52;;
36923;SDS011;22841;50.252;18.688;2023-07-13T05:04:07;12.93;;;10.00;;
36923;SDS011;22841;50.252;18.688;2023-07-13T05:06:34;14.98;;;8.90;;
36923;SDS011;22841;50.252;18.688;2023-07-13T05:09:00;18.23;;;9.90;;
36923;SDS011;22841;50.252;18.688;2023-07-13T05:11:26;13.85;;;9.48;;
36923;SDS011;22841;50.252;18.688;2023-07-13T05:13:52;12.80;;;10.20;;
36923;SDS011;22841;50.252;18.688;2023-07-13T05:16:18;17.83;;;10.05;;
36923;SDS011;22841;50.252;18.688;2023-07-13T05:18:45;18.30;;;10.07;;
36923;SDS011;22841;50.252;18.688;2023-07-13T05:21:11;17.35;;;9.32;;
36923;SDS011;22841;50.252;18.688;2023-07-13T05:23:37;19.75;;;9.35;;
36923;SDS011;22841;50.252;18.688;2023-07-13T05:26:04;19.08;;;11.15;;
36923;SDS011;22841;50.252;18.688;2023-07-13T05:28:31;18.83;;;11.55;;
36923;SDS011;22841;50.252;18.688;2023-07-13T05:30:58;15.05;;;9.00;;
36923;SDS011;22841;50.252;18.688;2023-07-13T05:33:24;21.35;;;11.75;;
36923;SDS011;22841;50.252;18.688;2023-07-13T05:35:50;19.42;;;13.02;;
36923;SDS011;22841;50.252;18.688;2023-07-13T05:38:16;17.45;;;11.77;;
36923;SDS011;22841;50.252;18.688;2023-07-13T05:40:43;16.65;;;10.88;;
36923;SDS011;22841;50.252;18.688;2023-07-13T05:43:10;16.08;;;10.88;;
36923;SDS011;22841;50.252;18.688;2023-07-13T05:45:36;20.35;;;11.40;;
36923;SDS011;22841;50.252;18.688;2023-07-13T05:48:02;16.58;;;11.70;;
36923;SDS011;22841;50.252;18.688;2023-07-13T05:50:29;17.95;;;11.00;;
36923;SDS011;22841;50.252;18.688;2023-07-13T05:52:55;21.50;;;12.70;;
36923;SDS011;22841;50.252;18.688;2023-07-13T05:55:22;21.35;;;12.32;;
36923;SDS011;22841;50.252;18.688;2023-07-13T05:57:48;15.63;;;12.27;;
36923;SDS011;22841;50.252;18.688;2023-07-13T06:00:14;20.65;;;13.20;;
36923;SDS011;22841;50.252;18.688;2023-07-13T06:02:41;19.77;;;13.25;;
36923;SDS011;22841;50.252;18.688;2023-07-13T06:05:08;22.60;;;13.75;;
36923;SDS011;22841;50.252;18.688;2023-07-13T06:07:34;25.50;;;14.02;;
36923;SDS011;22841;50.252;18.688;2023-07-13T06:10:00;24.05;;;14.57;;
36923;SDS011;22841;50.252;18.688;2023-07-13T06:12:26;25.02;;;15.80;;
36923;SDS011;22841;50.252;18.688;2023-07-13T06:14:53;18.92;;;14.35;;
36923;SDS011;22841;50.252;18.688;2023-07-13T06:17:19;26.13;;;14.48;;
36923;SDS011;22841;50.252;18.688;2023-07-13T06:19:45;19.77;;;13.75;;
36923;SDS011;22841;50.252;18.688;2023-07-13T06:22:11;27.40;;;16.17;;
36923;SDS011;22841;50.252;18.688;2023-07-13T06:24:37;23.15;;;15.00;;
36923;SDS011;22841;50.252;18.688;2023-07-13T06:27:03;27.35;;;16.45;;
36923;SDS011;22841;50.252;18.688;2023-07-13T06:29:29;23.63;;;17.40;;
36923;SDS011;22841;50.252;18.688;2023-07-13T06:31:56;30.90;;;17.35;;
36923;SDS011;22841;50.252;18.688;2023-07-13T06:34:23;27.40;;;14.38;;
36923;SDS011;22841;50.252;18.688;2023-07-13T06:36:49;25.38;;;16.15;;
36923;SDS011;22841;50.252;18.688;2023-07-13T06:39:15;19.48;;;14.23;;
36923;SDS011;22841;50.252;18.688;2023-07-13T06:41:41;19.00;;;13.10;;
36923;SDS011;22841;50.252;18.688;2023-07-13T06:44:07;20.98;;;13.23;;
36923;SDS011;22841;50.252;18.688;2023-07-13T06:46:33;22.10;;;14.80;;
36923;SDS011;22841;50.252;18.688;2023-07-13T06:48:59;19.27;;;12.13;;
36923;SDS011;22841;50.252;18.688;2023-07-13T06:51:25;21.80;;;9.90;;
36923;SDS011;22841;50.252;18.688;2023-07-13T06:53:51;18.17;;;9.02;;
36923;SDS011;22841;50.252;18.688;2023-07-13T06:56:18;17.98;;;8.80;;
36923;SDS011;22841;50.252;18.688;2023-07-13T06:58:44;13.48;;;7.18;;
36923;SDS011;22841;50.252;18.688;2023-07-13T07:01:10;11.68;;;7.78;;
36923;SDS011;22841;50.252;18.688;2023-07-13T07:03:36;14.55;;;9.00;;
36923;SDS011;22841;50.252;18.688;2023-07-13T07:06:12;16.25;;;8.77;;
36923;SDS011;22841;50.252;18.688;2023-07-13T07:08:42;18.85;;;9.60;;
36923;SDS011;22841;50.252;18.688;2023-07-13T07:11:11;18.67;;;9.32;;
36923;SDS011;22841;50.252;18.688;2023-07-13T07:13:38;15.95;;;7.93;;
36923;SDS011;22841;50.252;18.688;2023-07-13T07:16:04;18.60;;;8.50;;
36923;SDS011;22841;50.252;18.688;2023-07-13T07:18:30;13.10;;;9.20;;
36923;SDS011;22841;50.252;18.688;2023-07-13T07:20:56;14.77;;;10.05;;
36923;SDS011;22841;50.252;18.688;2023-07-13T07:23:22;13.90;;;8.90;;
36923;SDS011;22841;50.252;18.688;2023-07-13T07:25:48;15.48;;;9.73;;
36923;SDS011;22841;50.252;18.688;2023-07-13T07:28:16;14.25;;;9.85;;
36923;SDS011;22841;50.252;18.688;2023-07-13T07:30:45;11.50;;;8.90;;
36923;SDS011;22841;50.252;18.688;2023-07-13T07:33:12;15.63;;;9.27;;
36923;SDS011;22841;50.252;18.688;2023-07-13T07:35:39;15.27;;;8.93;;
36923;SDS011;22841;50.252;18.688;2023-07-13T07:38:05;15.98;;;8.63;;
36923;SDS011;22841;50.252;18.688;2023-07-13T07:40:31;16.00;;;9.38;;
36923;SDS011;22841;50.252;18.688;2023-07-13T07:43:01;14.63;;;10.18;;
36923;SDS011;22841;50.252;18.688;2023-07-13T07:45:27;13.88;;;9.57;;
36923;SDS011;22841;50.252;18.688;2023-07-13T07:47:53;13.70;;;9.60;;
36923;SDS011;22841;50.252;18.688;2023-07-13T07:50:27;18.75;;;9.70;;
36923;SDS011;22841;50.252;18.688;2023-07-13T07:52:54;17.65;;;9.52;;
36923;SDS011;22841;50.252;18.688;2023-07-13T07:55:21;13.90;;;8.52;;
36923;SDS011;22841;50.252;18.688;2023-07-13T07:57:48;14.02;;;8.57;;
36923;SDS011;22841;50.252;18.688;2023-07-13T08:00:15;12.10;;;7.90;;
36923;SDS011;22841;50.252;18.688;2023-07-13T08:02:43;13.57;;;8.52;;
36923;SDS011;22841;50.252;18.688;2023-07-13T08:05:09;10.50;;;8.40;;
36923;SDS011;22841;50.252;18.688;2023-07-13T08:07:39;11.38;;;7.80;;
36923;SDS011;22841;50.252;18.688;2023-07-13T08:10:06;11.95;;;7.82;;
36923;SDS011;22841;50.252;18.688;2023-07-13T08:12:36;12.98;;;7.00;;
36923;SDS011;22841;50.252;18.688;2023-07-13T08:15:03;12.93;;;7.57;;
36923;SDS011;22841;50.252;18.688;2023-07-13T08:17:29;9.40;;;7.55;;
36923;SDS011;22841;50.252;18.688;2023-07-13T08:19:56;13.52;;;8.57;;
36923;SDS011;22841;50.252;18.688;2023-07-13T08:22:23;11.30;;;7.38;;
36923;SDS011;22841;50.252;18.688;2023-07-13T08:24:49;14.57;;;7.35;;
36923;SDS011;22841;50.252;18.688;2023-07-13T08:27:21;10.63;;;7.75;;
36923;SDS011;22841;50.252;18.688;2023-07-13T08:29:49;11.55;;;6.95;;
36923;SDS011;22841;50.252;18.688;2023-07-13T08:32:16;11.23;;;7.40;;
36923;SDS011;22841;50.252;18.688;2023-07-13T08:34:43;12.52;;;6.63;;
36923;SDS011;22841;50.252;18.688;2023-07-13T08:37:09;9.52;;;6.97;;
36923;SDS011;22841;50.252;18.688;2023-07-13T08:39:36;11.15;;;7.20;;
36923;SDS011;22841;50.252;18.688;2023-07-13T08:42:06;16.98;;;8.13;;
36923;SDS011;22841;50.252;18.688;2023-07-13T08:47:48;12.27;;;7.45;;
36923;SDS011;22841;50.252;18.688;2023-07-13T08:50:22;10.20;;;7.35;;
36923;SDS011;22841;50.252;18.688;2023-07-13T08:52:53;14.80;;;7.65;;
36923;SDS011;22841;50.252;18.688;2023-07-13T08:55:21;13.48;;;8.20;;
36923;SDS011;22841;50.252;18.688;2023-07-13T08:57:53;20.25;;;8.90;;
36923;SDS011;22841;50.252;18.688;2023-07-13T09:00:30;11.70;;;9.93;;
36923;SDS011;22841;50.252;18.688;2023-07-13T09:03:20;11.50;;;9.75;;
36923;SDS011;22841;50.252;18.688;2023-07-13T09:05:51;17.20;;;9.45;;
36923;SDS011;22841;50.252;18.688;2023-07-13T09:10:53;12.93;;;7.95;;
36923;SDS011;22841;50.252;18.688;2023-07-13T09:13:51;10.43;;;7.45;;
36923;SDS011;22841;50.252;18.688;2023-07-13T09:16:45;13.48;;;8.13;;
36923;SDS011;22841;50.252;18.688;2023-07-13T09:19:15;15.70;;;7.90;;
36923;SDS011;22841;50.252;18.688;2023-07-13T09:21:48;9.65;;;6.97;;
36923;SDS011;22841;50.252;18.688;2023-07-13T09:27:17;13.93;;;6.75;;
36923;SDS011;22841;50.252;18.688;2023-07-13T09:29:51;6.22;;;4.72;;
36923;SDS011;22841;50.252;18.688;2023-07-13T09:32:24;7.93;;;4.45;;
36923;SDS011;22841;50.252;18.688;2023-07-13T09:34:52;9.52;;;3.78;;
36923;SDS011;22841;50.252;18.688;2023-07-13T09:37:20;4.97;;;3.10;;
36923;SDS011;22841;50.252;18.688;2023-07-13T09:39:49;3.97;;;3.30;;
36923;SDS011;22841;50.252;18.688;2023-07-13T09:42:17;7.55;;;3.17;;
36923;SDS011;22841;50.252;18.688;2023-07-13T09:47:17;11.43;;;3.40;;
36923;SDS011;22841;50.252;18.688;2023-07-13T09:49:53;10.93;;;3.97;;
36923;SDS011;22841;50.252;18.688;2023-07-13T09:52:24;8.48;;;4.13;;
36923;SDS011;22841;50.252;18.688;2023-07-13T09:54:53;9.32;;;3.30;;
36923;SDS011;22841;50.252;18.688;2023-07-13T09:57:25;5.57;;;3.75;;
36923;SDS011;22841;50.252;18.688;2023-07-13T09:59:53;7.15;;;3.80;;
36923;SDS011;22841;50.252;18.688;2023-07-13T10:02:43;12.63;;;3.70;;
36923;SDS011;22841;50.252;18.688;2023-07-13T10:05:13;6.78;;;3.72;;
36923;SDS011;22841;50.252;18.688;2023-07-13T10:07:44;7.68;;;3.97;;
36923;SDS011;22841;50.252;18.688;2023-07-13T10:10:14;7.63;;;4.05;;
36923;SDS011;22841;50.252;18.688;2023-07-13T10:12:46;10.88;;;4.03;;
36923;SDS011;22841;50.252;18.688;2023-07-13T10:15:14;14.05;;;4.03;;
36923;SDS011;22841;50.252;18.688;2023-07-13T10:17:44;8.00;;;3.60;;
36923;SDS011;22841;50.252;18.688;2023-07-13T10:20:11;7.18;;;3.50;;
36923;SDS011;22841;50.252;18.688;2023-07-13T10:25:20;7.82;;;3.50;;
36923;SDS011;22841;50.252;18.688;2023-07-13T10:27:49;4.40;;;3.05;;
36923;SDS011;22841;50.252;18.688;2023-07-13T10:30:22;8.23;;;3.35;;
36923;SDS011;22841;50.252;18.688;2023-07-13T10:32:53;9.50;;;3.40;;
36923;SDS011;22841;50.252;18.688;2023-07-13T10:35:23;6.03;;;3.08;;
36923;SDS011;22841;50.252;18.688;2023-07-13T10:37:52;9.77;;;3.72;;
36923;SDS011;22841;50.252;18.688;2023-07-13T10:40:22;9.55;;;3.30;;
36923;SDS011;22841;50.252;18.688;2023-07-13T10:42:53;7.05;;;3.45;;
36923;SDS011;22841;50.252;18.688;2023-07-13T10:45:23;12.75;;;3.65;;
36923;SDS011;22841;50.252;18.688;2023-07-13T10:47:51;8.52;;;3.72;;
36923;SDS011;22841;50.252;18.688;2023-07-13T10:50:22;4.20;;;3.33;;
36923;SDS011;22841;50.252;18.688;2023-07-13T10:52:51;12.88;;;4.40;;
36923;SDS011;22841;50.252;18.688;2023-07-13T10:58:15;5.55;;;3.65;;
36923;SDS011;22841;50.252;18.688;2023-07-13T11:03:17;8.50;;;4.03;;
36923;SDS011;22841;50.252;18.688;2023-07-13T11:05:46;4.68;;;3.60;;
36923;SDS011;22841;50.252;18.688;2023-07-13T11:08:19;6.05;;;3.92;;
36923;SDS011;22841;50.252;18.688;2023-07-13T11:10:56;6.65;;;3.70;;
36923;SDS011;22841;50.252;18.688;2023-07-13T11:21:18;9.95;;;8.07;;
36923;SDS011;22841;50.252;18.688;2023-07-13T11:23:53;10.55;;;6.63;;
36923;SDS011;22841;50.252;18.688;2023-07-13T11:27:12;10.60;;;6.53;;
36923;SDS011;22841;50.252;18.688;2023-07-13T11:29:24;10.20;;;6.63;;
36923;SDS011;22841;50.252;18.688;2023-07-13T11:31:55;10.80;;;6.00;;
36923;SDS011;22841;50.252;18.688;2023-07-13T11:34:30;10.90;;;5.45;;
36923;SDS011;22841;50.252;18.688;2023-07-13T11:37:00;9.95;;;4.80;;
36923;SDS011;22841;50.252;18.688;2023-07-13T11:39:31;3.88;;;3.35;;
36923;SDS011;22841;50.252;18.688;2023-07-13T11:42:05;5.35;;;3.33;;
36923;SDS011;22841;50.252;18.688;2023-07-13T11:44:34;9.33;;;3.73;;
36923;SDS011;22841;50.252;18.688;2023-07-13T11:47:08;10.82;;;3.30;;
36923;SDS011;22841;50.252;18.688;2023-07-13T11:49:43;8.07;;;3.38;;
36923;SDS011;22841;50.252;18.688;2023-07-13T11:52:16;3.53;;;3.13;;
36923;SDS011;22841;50.252;18.688;2023-07-13T12:00:03;4.75;;;3.00;;
36923;SDS011;22841;50.252;18.688;2023-07-13T12:02:39;5.25;;;3.25;;
36923;SDS011;22841;50.252;18.688;2023-07-13T12:05:15;3.47;;;3.17;;
36923;SDS011;22841;50.252;18.688;2023-07-13T12:07:43;5.10;;;3.60;;
36923;SDS011;22841;50.252;18.688;2023-07-13T12:15:21;5.50;;;3.78;;
36923;SDS011;22841;50.252;18.688;2023-07-13T12:17:49;5.65;;;3.90;;
36923;SDS011;22841;50.252;18.688;2023-07-13T12:20:29;3.95;;;3.47;;
36923;SDS011;22841;50.252;18.688;2023-07-13T12:23:04;5.10;;;3.70;;
36923;SDS011;22841;50.252;18.688;2023-07-13T12:25:31;7.18;;;3.60;;
36923;SDS011;22841;50.252;18.688;2023-07-13T12:27:57;4.93;;;3.90;;
36923;SDS011;22841;50.252;18.688;2023-07-13T12:32:59;5.80;;;3.40;;
36923;SDS011;22841;50.252;18.688;2023-07-13T12:35:30;4.13;;;3.63;;
36923;SDS011;22841;50.252;18.688;2023-07-13T12:37:58;7.38;;;4.55;;
36923;SDS011;22841;50.252;18.688;2023-07-13T12:40:35;4.75;;;3.70;;
36923;SDS011;22841;50.252;18.688;2023-07-13T12:43:02;4.47;;;3.15;;
36923;SDS011;22841;50.252;18.688;2023-07-13T12:45:32;3.33;;;2.95;;
36923;SDS011;22841;50.252;18.688;2023-07-13T12:48:04;8.65;;;2.92;;
36923;SDS011;22841;50.252;18.688;2023-07-13T12:50:40;3.67;;;3.03;;
36923;SDS011;22841;50.252;18.688;2023-07-13T12:53:30;4.45;;;3.00;;
36923;SDS011;22841;50.252;18.688;2023-07-13T12:55:59;3.58;;;3.28;;
36923;SDS011;22841;50.252;18.688;2023-07-13T12:58:41;4.07;;;3.40;;
36923;SDS011;22841;50.252;18.688;2023-07-13T13:01:09;2.63;;;2.42;;
36923;SDS011;22841;50.252;18.688;2023-07-13T13:03:39;3.60;;;1.88;;
36923;SDS011;22841;50.252;18.688;2023-07-13T13:08:42;4.43;;;2.30;;
36923;SDS011;22841;50.252;18.688;2023-07-13T13:11:09;2.85;;;2.42;;
36923;SDS011;22841;50.252;18.688;2023-07-13T13:13:35;2.33;;;2.10;;
36923;SDS011;22841;50.252;18.688;2023-07-13T13:18:46;4.47;;;2.33;;
36923;SDS011;22841;50.252;18.688;2023-07-13T13:21:12;2.67;;;2.47;;
36923;SDS011;22841;50.252;18.688;2023-07-13T13:23:38;3.20;;;2.28;;
36923;SDS011;22841;50.252;18.688;2023-07-13T13:26:07;3.28;;;2.35;;
36923;SDS011;22841;50.252;18.688;2023-07-13T13:28:36;3.28;;;2.42;;
36923;SDS011;22841;50.252;18.688;2023-07-13T13:31:02;2.60;;;2.40;;
36923;SDS011;22841;50.252;18.688;2023-07-13T13:33:28;3.88;;;2.85;;
36923;SDS011;22841;50.252;18.688;2023-07-13T13:35:56;5.03;;;2.80;;
36923;SDS011;22841;50.252;18.688;2023-07-13T13:38:24;3.83;;;2.75;;
36923;SDS011;22841;50.252;18.688;2023-07-13T13:40:52;4.65;;;2.65;;
36923;SDS011;22841;50.252;18.688;2023-07-13T13:43:22;2.80;;;2.58;;
36923;SDS011;22841;50.252;18.688;2023-07-13T13:45:53;6.35;;;3.22;;
36923;SDS011;22841;50.252;18.688;2023-07-13T13:50:59;4.10;;;2.85;;
36923;SDS011;22841;50.252;18.688;2023-07-13T13:53:26;3.55;;;2.50;;
36923;SDS011;22841;50.252;18.688;2023-07-13T13:55:53;5.30;;;2.80;;
36923;SDS011;22841;50.252;18.688;2023-07-13T13:58:20;5.53;;;2.95;;
36923;SDS011;22841;50.252;18.688;2023-07-13T14:00:47;2.88;;;2.60;;
36923;SDS011;22841;50.252;18.688;2023-07-13T14:03:15;3.90;;;2.90;;
36923;SDS011;22841;50.252;18.688;2023-07-13T14:05:44;4.65;;;3.22;;
36923;SDS011;22841;50.252;18.688;2023-07-13T14:08:18;7.38;;;3.13;;
36923;SDS011;22841;50.252;18.688;2023-07-13T14:10:47;4.88;;;3.40;;
36923;SDS011;22841;50.252;18.688;2023-07-13T14:13:16;5.35;;;2.97;;
36923;SDS011;22841;50.252;18.688;2023-07-13T14:15:45;5.68;;;2.75;;
36923;SDS011;22841;50.252;18.688;2023-07-13T14:18:11;3.83;;;3.00;;
36923;SDS011;22841;50.252;18.688;2023-07-13T14:23:13;8.00;;;2.88;;
36923;SDS011;22841;50.252;18.688;2023-07-13T14:25:41;8.15;;;3.45;;
36923;SDS011;22841;50.252;18.688;2023-07-13T14:28:26;5.07;;;3.33;;
36923;SDS011;22841;50.252;18.688;2023-07-13T14:30:54;8.45;;;4.75;;
36923;SDS011;22841;50.252;18.688;2023-07-13T14:33:20;10.98;;;5.40;;
36923;SDS011;22841;50.252;18.688;2023-07-13T14:35:46;6.45;;;5.88;;
36923;SDS011;22841;50.252;18.688;2023-07-13T14:38:14;9.18;;;4.82;;
36923;SDS011;22841;50.252;18.688;2023-07-13T14:40:43;7.18;;;5.57;;
36923;SDS011;22841;50.252;18.688;2023-07-13T14:43:12;6.15;;;5.32;;
36923;SDS011;22841;50.252;18.688;2023-07-13T14:45:40;8.70;;;6.00;;
36923;SDS011;22841;50.252;18.688;2023-07-13T14:48:15;6.85;;;5.93;;
36923;SDS011;22841;50.252;18.688;2023-07-13T14:50:44;5.15;;;4.65;;
36923;SDS011;22841;50.252;18.688;2023-07-13T14:53:12;8.88;;;5.50;;
36923;SDS011;22841;50.252;18.688;2023-07-13T14:55:38;5.72;;;4.95;;
36923;SDS011;22841;50.252;18.688;2023-07-13T14:58:05;9.18;;;4.50;;
36923;SDS011;22841;50.252;18.688;2023-07-13T15:00:31;13.02;;;5.53;;
36923;SDS011;22841;50.252;18.688;2023-07-13T15:02:58;6.05;;;5.13;;
36923;SDS011;22841;50.252;18.688;2023-07-13T15:05:27;6.15;;;4.22;;
36923;SDS011;22841;50.252;18.688;2023-07-13T15:07:56;8.43;;;4.32;;
36923;SDS011;22841;50.252;18.688;2023-07-13T15:10:29;6.28;;;4.55;;
36923;SDS011;22841;50.252;18.688;2023-07-13T15:13:00;4.30;;;3.80;;
36923;SDS011;22841;50.252;18.688;2023-07-13T15:15:38;3.92;;;3.50;;
36923;SDS011;22841;50.252;18.688;2023-07-13T15:18:12;5.90;;;3.83;;
36923;SDS011;22841;50.252;18.688;2023-07-13T15:20:39;6.13;;;3.97;;
36923;SDS011;22841;50.252;18.688;2023-07-13T15:23:05;3.63;;;3.05;;
36923;SDS011;22841;50.252;18.688;2023-07-13T15:25:32;6.53;;;3.80;;
36923;SDS011;22841;50.252;18.688;2023-07-13T15:27:59;4.85;;;3.70;;
36923;SDS011;22841;50.252;18.688;2023-07-13T15:30:27;3.78;;;3.30;;
36923;SDS011;22841;50.252;18.688;2023-07-13T15:33:00;4.68;;;3.85;;